Time;durP1;ratioP1;P1;durP2;ratioP2;P2;SDS_P1;SDS_P2;PMS_P1;PMS_P2;Temp;Humidity;BMP_temperature;BMP_pressure;BME280_temperature;BME280_humidity;BME280_pressure;Samples;Min_cycle;Max_cycle;Signal;HPM_P1;HPM_P2
2022/05/30 00:00:51;;;;;;;8.70;7.80;;;12.80;61.50;;;;;;5029654;28;20044;-77
2022/05/30 00:03:19;;;;;;;8.48;7.65;;;12.80;61.70;;;;;;5027776;28;20048;-77
2022/05/30 00:05:47;;;;;;;8.20;7.40;;;12.80;62.10;;;;;;5010277;28;20029;-77
2022/05/30 00:08:14;;;;;;;7.97;7.30;;;12.80;62.20;;;;;;5010207;28;20033;-77
2022/05/30 00:10:40;;;;;;;9.60;7.28;;;12.60;62.90;;;;;;5009928;28;20053;-77
2022/05/30 00:13:06;;;;;;;8.70;6.93;;;12.60;63.20;;;;;;5027968;28;20049;-77
2022/05/30 00:15:33;;;;;;;7.00;6.50;;;12.50;64.00;;;;;;4996356;28;20041;-77
2022/05/30 00:17:59;;;;;;;6.85;6.35;;;12.60;63.30;;;;;;5009890;28;20038;-77
2022/05/30 00:20:25;;;;;;;7.60;6.90;;;12.60;63.40;;;;;;5026211;28;20033;-77
2022/05/30 00:22:51;;;;;;;7.38;6.78;;;12.60;63.40;;;;;;5025879;28;20044;-77
2022/05/30 00:25:17;;;;;;;7.95;7.22;;;12.60;63.50;;;;;;5026958;28;20033;-77
2022/05/30 00:27:44;;;;;;;7.13;6.43;;;12.60;63.30;;;;;;5029010;28;20036;-77
2022/05/30 00:30:10;;;;;;;7.85;7.13;;;12.70;63.10;;;;;;5010239;28;20033;-77
2022/05/30 00:32:37;;;;;;;7.07;6.55;;;12.60;63.40;;;;;;5027150;28;20029;-77
2022/05/30 00:35:03;;;;;;;7.70;7.05;;;12.50;63.60;;;;;;5027227;28;20056;-78
2022/05/30 00:37:29;;;;;;;7.65;6.95;;;12.50;63.70;;;;;;5027872;28;20034;-77
2022/05/30 00:39:55;;;;;;;7.88;7.05;;;12.50;64.00;;;;;;5028082;28;20476;-77
2022/05/30 00:42:24;;;;;;;7.40;6.80;;;12.40;64.30;;;;;;5028420;28;20038;-77
2022/05/30 00:44:51;;;;;;;7.03;6.53;;;12.40;64.80;;;;;;5026611;28;20037;-76
2022/05/30 00:47:18;;;;;;;7.60;6.90;;;12.30;64.90;;;;;;5008241;28;20037;-77
2022/05/30 00:49:45;;;;;;;7.60;7.00;;;12.30;64.90;;;;;;5026870;28;20041;-77
2022/05/30 00:52:16;;;;;;;7.93;7.32;;;12.30;65.20;;;;;;5026359;28;20041;-77
2022/05/30 00:55:04;;;;;;;7.25;6.70;;;12.30;65.20;;;;;;5028802;28;20029;-77
2022/05/30 00:57:30;;;;;;;7.43;6.90;;;12.30;65.40;;;;;;5028059;28;20052;-77
2022/05/30 01:00:05;;;;;;;7.55;6.95;;;12.30;65.40;;;;;;4995574;28;20057;-77
2022/05/30 01:02:33;;;;;;;7.72;7.03;;;12.30;65.60;;;;;;5007907;28;20040;-77
2022/05/30 01:07:45;;;;;;;6.95;6.55;;;12.30;65.50;;;;;;5018630;28;20038;-77
2022/05/30 01:10:14;;;;;;;7.47;6.78;;;12.30;65.40;;;;;;5006940;28;20049;-77
2022/05/30 01:12:52;;;;;;;7.20;6.60;;;12.20;65.70;;;;;;5026457;28;20038;-77
2022/05/30 01:15:21;;;;;;;7.15;6.65;;;12.20;66.10;;;;;;5008800;28;20030;-77
2022/05/30 01:17:49;;;;;;;9.93;6.90;;;12.20;65.80;;;;;;5008545;28;20030;-77
2022/05/30 01:20:33;;;;;;;8.63;6.70;;;12.30;65.80;;;;;;5024350;28;20045;-77
2022/05/30 01:23:07;;;;;;;7.20;6.80;;;12.20;65.60;;;;;;5005902;28;20064;-77
2022/05/30 01:26:04;;;;;;;7.50;6.72;;;12.10;66.50;;;;;;5008264;28;20026;-77
2022/05/30 01:28:53;;;;;;;7.40;6.75;;;12.10;66.40;;;;;;5023791;28;20485;-77
2022/05/30 01:31:19;;;;;;;7.20;6.60;;;12.10;66.50;;;;;;5018602;28;20026;-77
2022/05/30 01:33:45;;;;;;;8.82;7.32;;;12.10;66.10;;;;;;4989095;28;20046;-77
2022/05/30 01:36:12;;;;;;;7.43;6.93;;;12.00;66.40;;;;;;4976266;28;20034;-77
2022/05/30 01:38:38;;;;;;;7.97;7.20;;;12.00;66.90;;;;;;5008182;28;20033;-77
2022/05/30 01:41:04;;;;;;;8.63;7.85;;;11.90;67.30;;;;;;5008227;28;20030;-77
2022/05/30 01:43:30;;;;;;;8.15;7.45;;;11.80;67.80;;;;;;5007899;28;20473;-77
2022/05/30 01:45:56;;;;;;;8.00;7.20;;;11.80;67.90;;;;;;5007038;28;20057;-77
2022/05/30 01:48:23;;;;;;;8.25;7.18;;;11.70;68.00;;;;;;5008623;28;20097;-77
2022/05/30 01:50:49;;;;;;;7.65;7.10;;;11.70;68.00;;;;;;5006787;28;20400;-77
2022/05/30 01:53:15;;;;;;;8.25;7.40;;;11.70;68.00;;;;;;5008043;28;20057;-77
2022/05/30 01:55:41;;;;;;;7.95;7.38;;;11.80;67.90;;;;;;5011790;28;20053;-77
2022/05/30 01:58:07;;;;;;;8.32;7.63;;;11.70;67.70;;;;;;5042690;28;20042;-77
2022/05/30 02:00:33;;;;;;;8.82;7.82;;;11.60;68.50;;;;;;5028407;28;20033;-77
2022/05/30 02:02:59;;;;;;;8.25;7.53;;;11.60;69.10;;;;;;4995288;28;20503;-77
2022/05/30 02:05:26;;;;;;;8.52;7.55;;;11.70;68.20;;;;;;5008603;28;20038;-77
2022/05/30 02:07:52;;;;;;;7.93;7.30;;;11.70;68.30;;;;;;5011396;28;20042;-77
2022/05/30 02:10:18;;;;;;;7.55;6.82;;;11.60;68.70;;;;;;5009402;28;20050;-77
2022/05/30 02:12:44;;;;;;;7.18;6.60;;;11.50;69.10;;;;;;5011104;28;20512;-77
2022/05/30 02:15:10;;;;;;;7.65;6.97;;;11.40;69.20;;;;;;5009182;28;20025;-77
2022/05/30 02:17:36;;;;;;;7.53;6.82;;;11.50;68.90;;;;;;4992673;28;20472;-77
2022/05/30 02:20:03;;;;;;;10.95;7.68;;;11.40;69.20;;;;;;5008410;28;20022;-77
2022/05/30 02:22:29;;;;;;;7.70;7.00;;;11.40;69.30;;;;;;5009965;28;20031;-77
2022/05/30 02:24:56;;;;;;;7.30;6.70;;;11.30;69.40;;;;;;5010860;28;20094;-77
2022/05/30 02:27:22;;;;;;;7.60;7.05;;;11.30;69.90;;;;;;5010494;28;20037;-77
2022/05/30 02:29:48;;;;;;;7.45;6.90;;;11.40;69.50;;;;;;5010351;28;20026;-77
2022/05/30 02:32:14;;;;;;;7.55;6.95;;;11.20;69.60;;;;;;5026291;28;20476;-77
2022/05/30 02:37:25;;;;;;;7.28;6.68;;;11.10;70.50;;;;;;5018222;28;20041;-77
2022/05/30 02:39:52;;;;;;;7.28;6.65;;;11.00;70.80;;;;;;5011475;28;20483;-77
2022/05/30 02:42:18;;;;;;;9.85;6.80;;;11.10;70.60;;;;;;5030615;28;20033;-77
2022/05/30 02:44:44;;;;;;;7.15;6.57;;;11.10;70.60;;;;;;5029181;28;20029;-77
2022/05/30 02:47:10;;;;;;;7.05;6.45;;;11.10;70.60;;;;;;5028758;28;20308;-77
2022/05/30 02:49:36;;;;;;;7.03;6.50;;;11.10;70.60;;;;;;5024012;28;20025;-77
2022/05/30 02:52:03;;;;;;;6.95;6.35;;;11.10;70.30;;;;;;5029671;28;20152;-77
2022/05/30 02:54:29;;;;;;;7.70;7.00;;;11.10;70.60;;;;;;5047034;28;20048;-77
2022/05/30 02:56:57;;;;;;;7.05;6.55;;;11.00;70.90;;;;;;5011307;28;20037;-77
2022/05/30 02:59:23;;;;;;;6.85;6.35;;;11.00;70.90;;;;;;5027454;28;20044;-77
2022/05/30 03:01:49;;;;;;;7.30;6.70;;;11.00;71.10;;;;;;4980085;28;20046;-77
2022/05/30 03:04:15;;;;;;;7.50;6.80;;;10.80;71.50;;;;;;5040949;28;20038;-77
2022/05/30 03:06:42;;;;;;;9.25;6.80;;;10.90;71.40;;;;;;5027269;28;20034;-76
2022/05/30 03:09:09;;;;;;;7.75;6.90;;;11.00;71.20;;;;;;5025041;28;20033;-77
2022/05/30 03:11:35;;;;;;;7.65;7.00;;;10.90;71.30;;;;;;5024110;28;20396;-77
2022/05/30 03:14:01;;;;;;;7.03;6.40;;;11.00;71.10;;;;;;5008856;28;20488;-77
2022/05/30 03:16:27;;;;;;;7.05;6.50;;;11.00;70.90;;;;;;5051836;28;20530;-76
2022/05/30 03:18:54;;;;;;;7.60;7.00;;;11.00;70.90;;;;;;5029996;28;20033;-77
2022/05/30 03:21:20;;;;;;;7.65;6.90;;;11.10;70.90;;;;;;5042146;28;20049;-77
2022/05/30 03:23:46;;;;;;;7.43;6.82;;;11.10;70.90;;;;;;5016108;28;20034;-77
2022/05/30 03:26:12;;;;;;;8.07;7.25;;;11.00;71.20;;;;;;5028221;28;20037;-77
2022/05/30 03:28:38;;;;;;;8.35;7.07;;;10.90;71.50;;;;;;5030086;28;20036;-77
2022/05/30 03:31:08;;;;;;;7.63;6.75;;;10.80;71.70;;;;;;5027470;28;20038;-77
2022/05/30 03:33:37;;;;;;;7.68;7.07;;;10.80;71.80;;;;;;5046666;28;20048;-77
2022/05/30 03:36:11;;;;;;;7.18;6.68;;;10.80;72.10;;;;;;5026943;28;20033;-77
2022/05/30 03:38:37;;;;;;;6.95;6.45;;;10.70;72.10;;;;;;5011737;28;20026;-76
2022/05/30 03:41:03;;;;;;;7.38;6.70;;;10.70;72.40;;;;;;5028213;28;20045;-77
2022/05/30 03:43:29;;;;;;;7.07;6.50;;;10.70;72.50;;;;;;5028897;28;20030;-76
2022/05/30 03:45:55;;;;;;;7.10;6.60;;;10.70;72.60;;;;;;5028574;28;20040;-77
2022/05/30 03:48:21;;;;;;;7.35;6.85;;;10.70;72.40;;;;;;5028488;28;20041;-77
2022/05/30 03:50:48;;;;;;;7.80;7.10;;;10.70;72.70;;;;;;5028202;28;20482;-77
2022/05/30 03:53:14;;;;;;;7.22;6.82;;;10.60;72.70;;;;;;5028277;28;20069;-77
2022/05/30 03:55:42;;;;;;;7.68;7.00;;;10.70;72.70;;;;;;5029642;28;20037;-77
2022/05/30 03:58:09;;;;;;;11.38;7.25;;;10.70;72.70;;;;;;5027206;28;20033;-77
2022/05/30 04:00:35;;;;;;;7.70;7.05;;;10.80;72.60;;;;;;5046019;28;20037;-77
2022/05/30 04:03:02;;;;;;;8.13;7.38;;;10.80;72.30;;;;;;5027761;28;20060;-76
2022/05/30 04:05:28;;;;;;;7.70;7.15;;;10.70;72.70;;;;;;5019468;28;20040;-77
2022/05/30 04:07:54;;;;;;;8.52;7.00;;;10.60;72.80;;;;;;5027729;28;20029;-76
2022/05/30 04:10:20;;;;;;;7.88;7.22;;;10.50;73.20;;;;;;5020737;28;20049;-76
2022/05/30 04:12:47;;;;;;;7.72;7.10;;;10.50;73.20;;;;;;5009127;28;20049;-77
2022/05/30 04:15:21;;;;;;;7.70;7.10;;;10.60;73.20;;;;;;5041464;28;20033;-77
2022/05/30 04:17:47;;;;;;;7.63;7.03;;;10.70;73.00;;;;;;5008733;28;20042;-78
2022/05/30 04:20:13;;;;;;;9.15;7.20;;;10.70;72.80;;;;;;5009183;28;20033;-77
2022/05/30 04:22:39;;;;;;;11.02;7.70;;;10.50;73.30;;;;;;5008839;28;20060;-76
2022/05/30 04:25:06;;;;;;;7.82;7.18;;;10.50;73.30;;;;;;5039783;28;20041;-77
2022/05/30 04:27:32;;;;;;;7.75;7.05;;;10.60;73.20;;;;;;5025638;28;20038;-77
2022/05/30 04:29:58;;;;;;;8.70;7.20;;;10.60;73.20;;;;;;4990324;28;20026;-77
2022/05/30 04:32:25;;;;;;;8.13;7.38;;;10.70;72.90;;;;;;4989479;28;20050;-77
2022/05/30 04:34:51;;;;;;;8.38;7.40;;;10.80;72.50;;;;;;5039143;28;20042;-77
2022/05/30 04:37:17;;;;;;;8.00;7.40;;;10.80;72.80;;;;;;5022832;28;20464;-77
2022/05/30 04:39:43;;;;;;;8.05;7.35;;;10.80;72.60;;;;;;5010580;28;20042;-76
2022/05/30 04:42:09;;;;;;;8.02;7.32;;;10.90;72.40;;;;;;5008130;28;20404;-76
2022/05/30 04:44:35;;;;;;;7.80;7.20;;;10.80;72.50;;;;;;5022519;28;20037;-77
2022/05/30 04:47:01;;;;;;;7.82;7.13;;;10.70;72.70;;;;;;5021606;28;20037;-77
2022/05/30 04:49:27;;;;;;;7.78;7.18;;;10.70;73.10;;;;;;5008002;28;20038;-77
2022/05/30 04:51:53;;;;;;;7.85;7.10;;;10.70;73.00;;;;;;5041457;28;20041;-77
2022/05/30 04:54:21;;;;;;;7.57;6.97;;;10.70;73.30;;;;;;5007403;28;20041;-77
2022/05/30 04:56:47;;;;;;;8.07;7.47;;;10.70;73.40;;;;;;4990160;28;20037;-77
2022/05/30 04:59:13;;;;;;;9.05;7.28;;;10.60;73.60;;;;;;4992552;28;20049;-77
2022/05/30 05:01:40;;;;;;;7.93;7.30;;;10.50;74.10;;;;;;4972848;28;20402;-77
2022/05/30 05:04:08;;;;;;;8.40;7.78;;;10.60;74.10;;;;;;5006471;28;20497;-77
2022/05/30 05:06:34;;;;;;;9.07;8.10;;;10.70;73.60;;;;;;5009031;28;20022;-78
2022/05/30 05:09:06;;;;;;;9.32;7.50;;;10.90;73.30;;;;;;4975959;28;20519;-77
2022/05/30 05:11:33;;;;;;;10.95;7.80;;;10.80;73.40;;;;;;4989142;28;20049;-77
2022/05/30 05:14:00;;;;;;;9.75;7.82;;;11.00;73.10;;;;;;5004309;28;20046;-77
2022/05/30 05:16:28;;;;;;;8.25;7.38;;;11.10;72.70;;;;;;4988661;28;20401;-78
2022/05/30 05:18:55;;;;;;;8.05;7.45;;;11.30;72.40;;;;;;5008447;28;20105;-77
2022/05/30 05:21:32;;;;;;;7.45;6.95;;;11.40;72.20;;;;;;5007209;28;20041;-78
2022/05/30 05:23:59;;;;;;;9.00;8.30;;;11.70;70.80;;;;;;4993120;28;20037;-77
2022/05/30 05:26:25;;;;;;;9.50;8.27;;;11.80;70.20;;;;;;4991998;28;20038;-78
2022/05/30 05:28:51;;;;;;;9.13;8.35;;;12.00;69.60;;;;;;5024606;28;20041;-78
2022/05/30 05:31:22;;;;;;;9.23;8.30;;;12.00;69.40;;;;;;5010558;28;20038;-78
2022/05/30 05:33:49;;;;;;;9.30;8.52;;;12.20;69.40;;;;;;5028252;28;20064;-78
2022/05/30 05:36:19;;;;;;;9.10;8.40;;;12.50;68.00;;;;;;4994689;28;20057;-78
2022/05/30 05:38:45;;;;;;;9.05;8.30;;;12.70;67.30;;;;;;5009574;28;20527;-78
2022/05/30 05:41:11;;;;;;;9.50;8.60;;;12.60;67.20;;;;;;5010694;28;20038;-78
2022/05/30 05:43:37;;;;;;;9.10;8.30;;;12.70;66.60;;;;;;5011099;28;20392;-78
2022/05/30 05:46:04;;;;;;;9.25;8.43;;;12.60;66.80;;;;;;5042780;28;20042;-78
2022/05/30 05:48:30;;;;;;;8.18;7.57;;;12.70;66.60;;;;;;5012762;28;20041;-78
2022/05/30 05:50:56;;;;;;;8.48;7.68;;;12.60;66.80;;;;;;5012119;28;20026;-78
2022/05/30 05:53:22;;;;;;;9.25;8.40;;;12.70;66.90;;;;;;5010494;28;20037;-78
2022/05/30 05:55:48;;;;;;;9.18;8.40;;;12.80;66.60;;;;;;5008898;28;20052;-78
2022/05/30 05:58:14;;;;;;;9.20;8.40;;;13.10;66.10;;;;;;5009806;28;20025;-78
2022/05/30 06:00:40;;;;;;;8.98;8.20;;;13.20;65.30;;;;;;5012142;28;20026;-79
2022/05/30 06:03:06;;;;;;;9.63;8.05;;;13.40;64.80;;;;;;5012036;28;20402;-78
2022/05/30 06:05:33;;;;;;;8.85;8.02;;;13.40;64.50;;;;;;5011665;28;20025;-78
2022/05/30 06:08:00;;;;;;;9.52;8.25;;;13.60;64.40;;;;;;5011647;28;20041;-78
2022/05/30 06:10:26;;;;;;;8.98;8.38;;;13.60;64.00;;;;;;5010121;28;20049;-78
2022/05/30 06:12:52;;;;;;;9.02;8.13;;;13.60;63.30;;;;;;5027538;28;20485;-78
2022/05/30 06:15:19;;;;;;;8.38;7.72;;;13.40;63.90;;;;;;4993266;28;20026;-78
2022/05/30 06:17:45;;;;;;;9.05;8.25;;;13.40;64.60;;;;;;4995201;28;20060;-78
2022/05/30 06:20:13;;;;;;;9.52;8.68;;;13.50;63.90;;;;;;5009952;28;20034;-78
2022/05/30 06:22:39;;;;;;;8.93;8.20;;;13.70;63.80;;;;;;5008479;28;20038;-78
2022/05/30 06:25:05;;;;;;;9.00;8.20;;;13.70;63.20;;;;;;5010766;28;20029;-78
2022/05/30 06:27:32;;;;;;;9.27;8.48;;;13.80;63.90;;;;;;4995560;28;20042;-79
2022/05/30 06:29:58;;;;;;;8.63;8.10;;;13.90;62.80;;;;;;4992539;28;20033;-78
2022/05/30 06:32:24;;;;;;;8.80;8.10;;;13.80;62.80;;;;;;5005957;28;20049;-78
2022/05/30 06:34:51;;;;;;;8.70;8.18;;;13.60;63.70;;;;;;5008446;28;20053;-78
2022/05/30 06:37:17;;;;;;;8.77;8.20;;;13.90;63.00;;;;;;5009708;28;20053;-78
2022/05/30 06:39:43;;;;;;;10.15;8.80;;;14.00;62.50;;;;;;5010649;28;20042;-78
2022/05/30 06:42:10;;;;;;;9.80;8.90;;;14.20;62.20;;;;;;5025350;28;20052;-78
2022/05/30 06:44:37;;;;;;;9.70;9.00;;;14.30;61.90;;;;;;5011125;28;20049;-78
2022/05/30 06:47:04;;;;;;;9.88;8.98;;;14.40;61.50;;;;;;5026807;28;20396;-79
2022/05/30 06:49:30;;;;;;;8.77;8.38;;;14.40;61.20;;;;;;5030004;28;20021;-78
2022/05/30 06:51:56;;;;;;;8.85;8.07;;;14.30;61.50;;;;;;5029981;28;20096;-78
2022/05/30 06:54:23;;;;;;;9.38;8.63;;;14.10;62.20;;;;;;5029467;28;20041;-78
2022/05/30 06:59:34;;;;;;;9.15;8.55;;;14.10;62.10;;;;;;5032411;28;20499;-78
2022/05/30 07:02:01;;;;;;;41.83;10.82;;;14.40;62.40;;;;;;5029924;28;20033;-78
2022/05/30 07:04:31;;;;;;;12.68;9.25;;;14.40;61.80;;;;;;5029307;28;20034;-78
2022/05/30 07:06:57;;;;;;;15.37;10.03;;;14.70;60.40;;;;;;5029762;28;20037;-78
2022/05/30 07:09:23;;;;;;;10.63;9.55;;;14.80;60.20;;;;;;5029203;28;20281;-78
2022/05/30 07:11:49;;;;;;;10.15;9.35;;;15.00;60.00;;;;;;4997482;28;20416;-79
2022/05/30 07:14:16;;;;;;;10.82;9.88;;;15.10;59.30;;;;;;5027862;28;20045;-78
2022/05/30 07:16:42;;;;;;;10.18;9.48;;;15.30;58.90;;;;;;5028147;28;20045;-79
2022/05/30 07:19:09;;;;;;;11.27;10.00;;;15.30;58.50;;;;;;5028233;28;20037;-79
2022/05/30 07:21:36;;;;;;;10.27;9.57;;;15.40;58.60;;;;;;5014316;28;20021;-79
2022/05/30 07:24:03;;;;;;;11.02;10.10;;;15.40;58.40;;;;;;5010961;28;20029;-79
2022/05/30 07:26:29;;;;;;;10.88;9.93;;;15.50;58.50;;;;;;5027176;28;20033;-79
2022/05/30 07:28:55;;;;;;;10.10;9.48;;;15.70;57.90;;;;;;5027320;28;20040;-78
2022/05/30 07:31:22;;;;;;;10.85;10.00;;;15.60;58.10;;;;;;5027558;28;20026;-78
2022/05/30 07:33:48;;;;;;;10.13;9.50;;;15.40;58.30;;;;;;5029355;28;20044;-78
2022/05/30 07:36:17;;;;;;;11.48;10.68;;;15.50;58.50;;;;;;5028284;28;20018;-78
2022/05/30 07:38:43;;;;;;;11.60;10.88;;;15.70;58.00;;;;;;5010824;28;20033;-79
2022/05/30 07:41:09;;;;;;;11.18;10.48;;;15.80;57.30;;;;;;5026935;28;20083;-78
2022/05/30 07:43:36;;;;;;;10.25;9.65;;;15.80;56.80;;;;;;5010920;28;20036;-78
2022/05/30 07:46:03;;;;;;;11.70;11.02;;;15.70;57.40;;;;;;5027783;28;20060;-78
2022/05/30 07:48:29;;;;;;;11.85;10.98;;;16.00;56.50;;;;;;5030704;28;20033;-79
2022/05/30 07:50:56;;;;;;;11.60;10.80;;;16.20;56.40;;;;;;5027608;28;20033;-79
2022/05/30 07:53:22;;;;;;;11.10;10.50;;;16.10;56.20;;;;;;5028904;28;20530;-79
2022/05/30 07:55:48;;;;;;;12.32;11.32;;;16.30;56.10;;;;;;5007170;28;20397;-79
2022/05/30 07:58:14;;;;;;;11.50;10.70;;;16.30;55.70;;;;;;5029483;28;20029;-79
2022/05/30 08:00:40;;;;;;;12.10;11.10;;;16.50;55.80;;;;;;5029829;28;20038;-79
2022/05/30 08:03:11;;;;;;;12.20;11.30;;;16.70;55.40;;;;;;5027856;28;20032;-79
2022/05/30 08:05:39;;;;;;;13.10;12.20;;;16.70;55.10;;;;;;5029220;28;20030;-79
2022/05/30 08:08:06;;;;;;;12.85;12.13;;;16.90;54.40;;;;;;5027821;28;20276;-79
2022/05/30 08:10:32;;;;;;;15.25;13.93;;;16.90;54.30;;;;;;5028501;28;20061;-78
2022/05/30 08:12:58;;;;;;;13.80;12.60;;;16.90;54.40;;;;;;5029609;28;20033;-79
2022/05/30 08:15:24;;;;;;;13.20;12.30;;;17.10;53.90;;;;;;5011242;28;20033;-79
2022/05/30 08:17:55;;;;;;;13.57;12.68;;;17.30;53.40;;;;;;5029086;28;20040;-79
2022/05/30 08:20:21;;;;;;;13.98;12.80;;;17.50;52.10;;;;;;5025209;28;20034;-79
2022/05/30 08:22:47;;;;;;;13.73;12.90;;;17.60;52.50;;;;;;5016884;28;20033;-79
2022/05/30 08:25:14;;;;;;;14.52;13.43;;;17.80;52.50;;;;;;5027323;28;20033;-79
2022/05/30 08:27:44;;;;;;;14.73;13.73;;;17.80;51.00;;;;;;5030173;28;20034;-79
2022/05/30 08:30:11;;;;;;;14.80;14.00;;;17.90;50.50;;;;;;5026575;28;20022;-79
2022/05/30 08:32:39;;;;;;;15.18;13.85;;;18.10;51.00;;;;;;5009924;28;20064;-79
2022/05/30 08:35:06;;;;;;;15.32;14.23;;;18.00;51.70;;;;;;5027044;28;20056;-79
2022/05/30 08:37:33;;;;;;;16.27;15.43;;;18.10;51.00;;;;;;5028352;28;20057;-79
2022/05/30 08:42:49;;;;;;;15.63;14.63;;;18.30;49.60;;;;;;5027961;28;20487;-79
2022/05/30 08:45:17;;;;;;;15.98;15.07;;;18.20;50.00;;;;;;5026702;28;20049;-79
2022/05/30 08:47:51;;;;;;;15.60;14.80;;;18.30;50.20;;;;;;5012213;28;20472;-79
2022/05/30 08:50:35;;;;;;;15.80;14.98;;;18.40;47.90;;;;;;5011997;28;20033;-79
2022/05/30 08:53:19;;;;;;;15.50;14.60;;;18.50;48.20;;;;;;5025917;28;20032;-79
2022/05/30 08:55:47;;;;;;;15.57;14.68;;;18.70;48.70;;;;;;5026968;28;20048;-79
2022/05/30 08:58:33;;;;;;;15.77;14.77;;;18.90;48.70;;;;;;5010360;28;20045;-79
2022/05/30 09:01:27;;;;;;;16.40;15.05;;;19.00;48.40;;;;;;5028634;28;20373;-79
2022/05/30 09:04:09;;;;;;;16.50;15.38;;;19.10;48.40;;;;;;5004492;28;20377;-79
2022/05/30 09:07:06;;;;;;;15.75;14.60;;;19.10;49.10;;;;;;5000408;28;20392;-80
2022/05/30 09:09:52;;;;;;;16.10;14.98;;;19.40;47.30;;;;;;5014154;28;20045;-79
2022/05/30 09:12:36;;;;;;;16.50;15.57;;;19.50;45.80;;;;;;5045012;28;20045;-80
2022/05/30 09:15:11;;;;;;;16.75;15.73;;;19.40;47.80;;;;;;5026238;28;20061;-78
2022/05/30 09:17:39;;;;;;;16.33;15.32;;;19.40;47.70;;;;;;5028474;28;20357;-80
2022/05/30 09:20:08;;;;;;;15.30;14.38;;;19.60;44.90;;;;;;5025164;28;20041;-80
2022/05/30 09:22:35;;;;;;;15.90;15.05;;;19.60;43.40;;;;;;4995230;28;20033;-80
2022/05/30 09:27:45;;;;;;;16.70;15.80;;;19.70;43.70;;;;;;5031730;28;20396;-80
2022/05/30 09:30:12;;;;;;;16.23;15.32;;;19.60;43.60;;;;;;5027133;28;20033;-80
2022/05/30 09:33:04;;;;;;;15.70;14.80;;;19.40;44.50;;;;;;5028156;28;20025;-80
2022/05/30 09:35:32;;;;;;;16.10;14.88;;;19.20;45.20;;;;;;5020973;28;20050;-79
2022/05/30 09:38:17;;;;;;;16.27;15.23;;;19.00;46.20;;;;;;5028067;28;20033;-80
2022/05/30 09:40:46;;;;;;;14.93;14.07;;;19.10;44.80;;;;;;5028088;28;20045;-80
2022/05/30 09:43:26;;;;;;;16.20;15.30;;;19.40;42.10;;;;;;5010518;28;20089;-80
2022/05/30 09:45:52;;;;;;;16.20;15.20;;;19.20;43.50;;;;;;5027241;28;20033;-80
2022/05/30 09:48:19;;;;;;;16.02;15.07;;;19.20;44.40;;;;;;5010299;28;20035;-80
2022/05/30 09:50:47;;;;;;;15.38;14.48;;;19.50;43.80;;;;;;5008922;28;20381;-80
2022/05/30 09:53:31;;;;;;;16.13;15.18;;;19.60;43.20;;;;;;5025128;28;20036;-80
2022/05/30 09:55:57;;;;;;;16.00;14.90;;;19.50;44.10;;;;;;5012477;28;20036;-80
2022/05/30 09:58:58;;;;;;;15.20;14.40;;;19.10;43.20;;;;;;5026142;28;20440;-79
2022/05/30 10:01:24;;;;;;;;;;;19.00;43.50;;;;;;5012534;28;20044;-79
2022/05/30 10:03:56;;;;;;;16.10;15.20;;;18.90;43.90;;;;;;5028739;28;20360;-80
2022/05/30 10:06:27;;;;;;;16.70;15.80;;;19.30;43.00;;;;;;5026563;28;20053;-79
2022/05/30 10:09:20;;;;;;;14.95;14.10;;;19.70;42.90;;;;;;5009183;28;20033;-80
2022/05/30 10:11:52;;;;;;;15.43;14.60;;;19.90;41.90;;;;;;5011251;28;20049;-80
2022/05/30 10:14:23;;;;;;;15.70;14.80;;;20.00;41.60;;;;;;5009500;28;20097;-80
2022/05/30 10:16:49;;;;;;;15.65;14.75;;;19.80;41.60;;;;;;5031028;28;20037;-80
2022/05/30 10:19:29;;;;;;;15.90;14.95;;;19.50;42.30;;;;;;5029256;28;20041;-80
2022/05/30 10:28:27;;;;;;;14.90;13.90;;;19.30;39.90;;;;;;5005483;28;20061;-79
2022/05/30 10:30:58;;;;;;;14.32;13.52;;;18.80;40.40;;;;;;5003539;28;20041;-79
2022/05/30 10:33:39;;;;;;;15.00;14.20;;;18.90;39.70;;;;;;4993999;28;20045;-79
2022/05/30 10:36:18;;;;;;;14.80;13.95;;;19.00;39.50;;;;;;4993339;28;20046;-80
2022/05/30 10:38:55;;;;;;;15.40;14.60;;;19.30;38.20;;;;;;4992133;28;20042;-80
2022/05/30 10:41:40;;;;;;;15.40;14.60;;;19.60;37.40;;;;;;4975524;28;20038;-80
2022/05/30 10:44:17;;;;;;;16.05;14.95;;;19.70;38.30;;;;;;4972990;28;20069;-80
2022/05/30 10:46:55;;;;;;;16.67;15.65;;;19.80;38.20;;;;;;4991658;28;20061;-80
2022/05/30 10:49:22;;;;;;;16.67;15.73;;;20.00;38.60;;;;;;4974616;28;20027;-80
2022/05/30 10:51:52;;;;;;;17.08;16.08;;;20.30;37.00;;;;;;4992911;28;20038;-80
2022/05/30 10:54:38;;;;;;;17.17;16.27;;;20.40;37.20;;;;;;4994803;28;20409;-80
2022/05/30 10:57:24;;;;;;;17.20;16.30;;;20.60;36.60;;;;;;5007208;28;20038;-80
2022/05/30 10:59:57;;;;;;;17.48;16.38;;;21.00;35.50;;;;;;5001030;28;20038;-80
2022/05/30 11:02:47;;;;;;;17.25;16.25;;;21.00;35.70;;;;;;4996957;28;20042;-80
2022/05/30 11:05:26;;;;;;;17.20;16.27;;;20.90;37.10;;;;;;5027146;28;20044;-80
2022/05/30 11:07:54;;;;;;;26.33;24.85;;;21.10;36.30;;;;;;5011735;28;20038;-80
2022/05/30 11:10:33;;;;;;;18.00;16.75;;;21.00;35.80;;;;;;5028242;28;20053;-80
2022/05/30 11:13:20;;;;;;;17.45;16.45;;;21.10;35.20;;;;;;5030538;28;20021;-80
2022/05/30 11:15:51;;;;;;;17.90;16.90;;;21.10;34.70;;;;;;4989407;28;20034;-80
2022/05/30 11:18:29;;;;;;;17.60;16.50;;;21.30;35.20;;;;;;4989486;28;20038;-80
2022/05/30 11:21:06;;;;;;;18.40;17.50;;;21.10;34.50;;;;;;4981810;28;20510;-80
2022/05/30 11:23:32;;;;;;;16.02;15.23;;;20.90;34.70;;;;;;4982287;28;20529;-80
2022/05/30 11:26:14;;;;;;;16.65;15.63;;;20.40;35.50;;;;;;4982324;28;20047;-80
2022/05/30 11:28:49;;;;;;;16.33;15.32;;;20.00;35.40;;;;;;4982693;28;20392;-80
2022/05/30 11:31:44;;;;;;;16.30;15.50;;;20.00;36.50;;;;;;4987153;28;20046;-80
2022/05/30 11:34:27;;;;;;;16.35;15.45;;;20.20;36.20;;;;;;4948559;28;20059;-80
2022/05/30 11:37:12;;;;;;;17.33;16.33;;;20.50;36.40;;;;;;4933819;29;20064;-79
2022/05/30 11:40:10;;;;;;;16.23;15.30;;;20.60;35.00;;;;;;4951205;29;20039;-80
2022/05/30 11:43:06;;;;;;;16.27;15.32;;;20.30;35.70;;;;;;4951559;29;20077;-80
2022/05/30 11:45:46;;;;;;;16.40;15.35;;;20.10;36.10;;;;;;4949953;28;20439;-80
2022/05/30 11:48:49;;;;;;;16.80;15.90;;;20.30;36.40;;;;;;4935179;29;20397;-80
2022/05/30 11:51:42;;;;;;;16.35;15.40;;;20.80;35.90;;;;;;4950522;29;20066;-80
2022/05/30 11:54:21;;;;;;;16.98;16.08;;;21.20;35.40;;;;;;4990897;28;20053;-81
2022/05/30 11:57:00;;;;;;;17.90;16.90;;;21.30;34.90;;;;;;4992340;28;20424;-80
2022/05/30 11:59:59;;;;;;;17.60;16.67;;;21.50;34.00;;;;;;4973219;28;20741;-80
2022/05/30 12:02:50;;;;;;;19.50;18.35;;;21.60;34.80;;;;;;5005226;28;20037;-80
2022/05/30 12:05:30;;;;;;;17.52;16.63;;;21.80;33.70;;;;;;4994621;28;20044;-80
2022/05/30 12:08:05;;;;;;;17.45;16.55;;;21.50;33.20;;;;;;4969123;28;20045;-80
2022/05/30 12:10:43;;;;;;;17.27;16.35;;;21.00;34.10;;;;;;4998727;28;20060;-80
2022/05/30 12:13:27;;;;;;;16.45;15.55;;;20.90;34.30;;;;;;5027151;28;20032;-80
2022/05/30 12:16:30;;;;;;;17.17;16.27;;;21.00;34.70;;;;;;5027208;28;20049;-80
2022/05/30 12:24:51;;;;;;;17.23;16.33;;;21.50;34.00;;;;;;5020276;28;20056;-80
2022/05/30 12:27:26;;;;;;;18.95;18.02;;;21.20;34.40;;;;;;5028940;28;20041;-80
2022/05/30 12:29:53;;;;;;;18.70;17.15;;;21.50;33.60;;;;;;5027458;28;20373;-80
2022/05/30 12:32:23;;;;;;;17.98;16.88;;;21.90;33.70;;;;;;5028898;28;20407;-80
2022/05/30 12:35:01;;;;;;;17.97;17.07;;;22.20;32.60;;;;;;5027623;28;20041;-80
2022/05/30 12:37:44;;;;;;;17.20;16.20;;;22.50;32.80;;;;;;5026989;28;20030;-80
2022/05/30 12:40:19;;;;;;;16.40;15.50;;;22.00;33.70;;;;;;5027740;28;20018;-80
2022/05/30 12:42:45;;;;;;;16.40;15.50;;;21.60;34.80;;;;;;5027059;28;20037;-80
2022/05/30 12:45:17;;;;;;;17.17;16.05;;;21.20;34.50;;;;;;5026248;28;20033;-79
2022/05/30 12:47:51;;;;;;;16.15;15.35;;;21.20;35.00;;;;;;5027283;28;20045;-80
2022/05/30 12:50:36;;;;;;;15.93;15.13;;;21.30;34.50;;;;;;5028885;28;20029;-80
2022/05/30 12:53:03;;;;;;;16.90;16.08;;;21.30;34.80;;;;;;5028771;28;20495;-80
2022/05/30 12:55:43;;;;;;;16.70;15.82;;;21.40;34.70;;;;;;5027532;28;20046;-80
2022/05/30 12:58:10;;;;;;;16.88;15.70;;;21.60;34.00;;;;;;5026541;28;20383;-80
2022/05/30 13:00:36;;;;;;;18.30;17.30;;;21.70;33.30;;;;;;4995947;28;20038;-80
2022/05/30 13:03:23;;;;;;;19.65;18.58;;;21.90;34.10;;;;;;5027238;28;20041;-80
2022/05/30 13:06:06;;;;;;;19.20;18.20;;;22.40;32.70;;;;;;5028412;28;20034;-80
2022/05/30 13:08:57;;;;;;;18.90;17.90;;;22.80;32.40;;;;;;5027030;28;20021;-80
2022/05/30 13:11:50;;;;;;;21.23;19.85;;;22.70;33.20;;;;;;5028228;28;20491;-80
2022/05/30 13:14:30;;;;;;;17.98;16.88;;;22.60;33.50;;;;;;5020755;28;20526;-80
2022/05/30 13:17:26;;;;;;;18.05;16.83;;;22.50;32.50;;;;;;5028003;28;20048;-80
2022/05/30 13:19:58;;;;;;;18.45;17.55;;;22.10;33.20;;;;;;5021527;28;20383;-80
2022/05/30 13:22:32;;;;;;;16.67;15.77;;;22.00;33.20;;;;;;5026966;28;20033;-80